createdAt,value
2024-05-09T00:01:47.396Z,6.25
2024-05-09T00:04:17.296Z,7.00
2024-05-09T00:06:47.250Z,8.20
2024-05-09T00:09:17.087Z,7.40
2024-05-09T00:11:47.015Z,4.00
2024-05-09T00:14:16.985Z,8.20
2024-05-09T00:16:48.621Z,7.80
2024-05-09T00:19:18.735Z,7.00
2024-05-09T00:21:48.757Z,3.80
2024-05-09T00:24:18.679Z,3.60
2024-05-09T00:26:48.480Z,5.60
2024-05-09T00:29:18.390Z,13.60
2024-05-09T00:31:48.366Z,10.60
2024-05-09T00:34:18.642Z,10.40
2024-05-09T00:36:48.580Z,3.60
2024-05-09T00:39:18.588Z,12.20
2024-05-09T00:41:48.520Z,7.40
2024-05-09T00:44:18.526Z,10.40
2024-05-09T00:46:48.485Z,7.00
2024-05-09T00:49:18.496Z,6.00
2024-05-09T00:51:48.571Z,9.40
2024-05-09T00:54:20.096Z,2.60
2024-05-09T00:56:51.066Z,4.80
2024-05-09T00:59:21.292Z,8.20
2024-05-09T01:01:52.223Z,10.80
2024-05-09T01:04:22.273Z,10.00
2024-05-09T01:06:52.163Z,11.60
2024-05-09T01:09:22.021Z,3.40
2024-05-09T01:11:52.067Z,6.60
2024-05-09T01:14:22.159Z,9.20
2024-05-09T01:16:52.320Z,8.40
2024-05-09T01:19:31.500Z,4.20
2024-05-09T01:22:01.573Z,1.00
2024-05-09T01:24:31.595Z,7.40
2024-05-09T01:27:01.476Z,4.80
2024-05-09T01:29:31.341Z,8.20
2024-05-09T01:32:01.441Z,6.60
2024-05-09T01:34:31.340Z,0.40
2024-05-09T01:37:01.178Z,3.60
2024-05-09T01:39:31.250Z,9.60
2024-05-09T01:42:01.078Z,8.20
2024-05-09T01:44:30.897Z,6.80
2024-05-09T01:47:00.756Z,9.00
2024-05-09T01:49:30.704Z,5.40
2024-05-09T01:52:00.673Z,7.00
2024-05-09T01:54:30.534Z,9.80
2024-05-09T01:57:00.401Z,9.60
2024-05-09T01:59:30.451Z,10.00
2024-05-09T02:02:00.690Z,8.20
2024-05-09T02:04:30.967Z,6.00
2024-05-09T02:07:00.952Z,5.60
2024-05-09T02:09:30.787Z,9.20
2024-05-09T02:12:01.011Z,7.80
2024-05-09T02:14:31.589Z,8.60
2024-05-09T02:17:01.644Z,12.40
2024-05-09T02:19:51.388Z,8.20
2024-05-09T02:22:21.318Z,9.00
2024-05-09T02:24:51.209Z,9.00
2024-05-09T02:27:21.080Z,12.40
2024-05-09T02:29:50.912Z,3.80
2024-05-09T02:32:20.807Z,7.80
2024-05-09T02:34:50.831Z,7.00
2024-05-09T02:37:20.672Z,1.80
2024-05-09T02:39:47.833Z,7.40
2024-05-09T02:42:17.739Z,6.00
2024-05-09T02:44:44.910Z,5.20
2024-05-09T02:47:14.828Z,6.80
2024-05-09T02:49:42.073Z,1.00
2024-05-09T02:52:11.990Z,4.00
2024-05-09T02:54:39.164Z,6.60
2024-05-09T02:57:08.955Z,3.40
2024-05-09T02:59:36.296Z,10.60
2024-05-09T03:02:06.461Z,7.00
2024-05-09T03:04:33.762Z,9.80
2024-05-09T03:07:03.607Z,7.00
2024-05-09T03:09:30.848Z,8.80
2024-05-09T03:12:01.384Z,7.00
2024-05-09T03:14:28.890Z,9.00
2024-05-09T03:16:58.811Z,4.00
2024-05-09T03:19:26.116Z,3.20
2024-05-09T03:21:56.027Z,0.00
2024-05-09T03:24:23.233Z,8.20
2024-05-09T03:26:53.055Z,7.80
2024-05-09T03:29:20.378Z,8.20
2024-05-09T03:31:50.430Z,11.00
2024-05-09T03:34:17.660Z,7.20
2024-05-09T03:36:48.465Z,7.80
2024-05-09T03:39:18.349Z,1.40
2024-05-09T03:41:48.215Z,5.60
2024-05-09T03:44:18.098Z,5.20
2024-05-09T03:46:45.412Z,4.00
2024-05-09T03:49:15.407Z,7.00
2024-05-09T03:51:42.961Z,7.20
2024-05-09T03:54:12.867Z,3.00
2024-05-09T03:56:41.942Z,8.20
2024-05-09T03:59:11.858Z,6.60
2024-05-09T04:01:39.190Z,6.80
2024-05-09T04:04:09.219Z,0.00
2024-05-09T04:06:36.706Z,5.20
2024-05-09T04:09:06.688Z,6.00
2024-05-09T04:11:34.031Z,4.80
2024-05-09T04:14:04.090Z,6.00
2024-05-09T04:16:31.315Z,3.20
2024-05-09T04:19:01.322Z,3.00
2024-05-09T04:21:31.339Z,0.40
2024-05-09T04:23:58.574Z,1.80
2024-05-09T04:26:28.554Z,4.00
2024-05-09T04:28:56.023Z,3.60
2024-05-09T04:31:25.899Z,4.00
2024-05-09T04:33:55.886Z,1.00
2024-05-09T04:36:23.249Z,2.20
2024-05-09T04:38:53.063Z,0.20
2024-05-09T04:41:20.573Z,7.20
2024-05-09T04:43:51.054Z,8.60
2024-05-09T04:46:18.303Z,3.00
2024-05-09T04:48:49.052Z,2.40
2024-05-09T04:51:16.393Z,4.00
2024-05-09T04:53:46.380Z,3.80
2024-05-09T04:56:13.774Z,1.00
2024-05-09T04:58:43.616Z,3.50
2024-05-09T05:01:10.941Z,0.00
2024-05-09T05:03:41.222Z,0.40
2024-05-09T05:06:08.569Z,6.00
2024-05-09T05:08:38.587Z,1.50
2024-05-09T05:11:05.980Z,3.00
2024-05-09T05:13:38.660Z,1.00
2024-05-09T05:16:10.169Z,1.00
2024-05-09T05:18:37.551Z,3.50
2024-05-09T05:21:07.656Z,3.00
2024-05-09T05:23:35.088Z,2.20
2024-05-09T05:26:05.155Z,2.60
2024-05-09T05:28:32.386Z,1.50
2024-05-09T05:31:02.554Z,3.00
2024-05-09T05:33:30.556Z,5.40
2024-05-09T05:36:00.745Z,3.00
2024-05-09T05:38:28.644Z,2.60
2024-05-09T05:40:58.899Z,1.80
2024-05-09T05:43:26.159Z,0.25
2024-05-09T05:45:56.118Z,3.00
2024-05-09T05:48:23.621Z,0.25
2024-05-09T05:50:53.628Z,3.00
2024-05-09T05:53:20.940Z,0.50
2024-05-09T05:55:50.955Z,1.00
2024-05-09T05:58:20.415Z,1.00
2024-05-09T06:00:50.303Z,1.40
2024-05-09T06:03:17.921Z,3.20
2024-05-09T06:05:48.692Z,0.00
2024-05-09T06:08:16.037Z,1.00
2024-05-09T06:10:46.230Z,0.00
2024-05-09T06:13:14.374Z,0.25
2024-05-09T06:15:45.182Z,1.00
2024-05-09T06:18:15.175Z,0.00
2024-05-09T06:20:45.490Z,3.20
2024-05-09T06:23:13.345Z,5.50
2024-05-09T06:25:44.242Z,2.00
2024-05-09T06:28:11.758Z,3.50
2024-05-09T06:30:43.060Z,0.25
2024-05-09T06:33:13.394Z,1.00
2024-05-09T06:35:45.551Z,2.00
2024-05-09T06:38:13.034Z,1.75
2024-05-09T06:40:45.071Z,3.00
2024-05-09T06:43:13.496Z,0.00
2024-05-09T06:45:43.515Z,0.50
2024-05-09T06:48:10.871Z,1.00
2024-05-09T06:50:41.480Z,4.00
2024-05-09T06:53:09.353Z,2.50
2024-05-09T06:55:39.766Z,0.00
2024-05-09T06:58:07.629Z,1.00
2024-05-09T07:00:40.559Z,1.50
2024-05-09T07:03:17.915Z,1.50
2024-05-09T07:05:50.367Z,1.00
2024-05-09T07:08:18.314Z,0.00
2024-05-09T07:10:49.045Z,1.00
2024-05-09T07:13:18.114Z,2.00
2024-05-09T07:15:51.207Z,1.00
2024-05-09T07:18:20.475Z,1.00
2024-05-09T07:20:51.410Z,3.25
2024-05-09T07:23:19.435Z,1.00
2024-05-09T07:25:53.387Z,1.00
2024-05-09T07:28:21.431Z,0.50
2024-05-09T07:30:51.578Z,1.75
2024-05-09T07:33:23.598Z,3.00
2024-05-09T07:35:55.414Z,1.00
2024-05-09T07:38:22.738Z,0.25
2024-05-09T07:40:54.446Z,0.00
2024-05-09T07:43:21.728Z,1.40
2024-05-09T07:45:54.391Z,1.00
2024-05-09T07:52:45.990Z,2.25
2024-05-09T07:53:49.162Z,1.00
2024-05-09T07:56:24.572Z,1.00
2024-05-09T07:58:53.240Z,0.00
2024-05-09T08:01:26.261Z,0.00
2024-05-09T08:03:55.720Z,0.00
2024-05-09T08:06:26.876Z,0.25
2024-05-09T08:08:56.852Z,0.25
2024-05-09T08:11:28.107Z,1.00
2024-05-09T08:13:56.392Z,1.00
2024-05-09T08:16:27.515Z,0.50
2024-05-09T08:18:54.944Z,0.50
2024-05-09T08:21:26.786Z,3.00
2024-05-09T08:23:54.535Z,3.40
2024-05-09T08:26:24.632Z,0.00
2024-05-09T08:28:53.354Z,3.00
2024-05-09T08:32:11.715Z,0.80
2024-05-09T08:34:42.839Z,6.00
2024-05-09T08:37:15.701Z,1.60
2024-05-09T08:39:54.082Z,1.00
2024-05-09T08:42:23.588Z,3.20
2024-05-09T08:44:53.983Z,1.00
2024-05-09T08:47:21.374Z,3.00
2024-05-09T08:49:52.008Z,3.00
2024-05-09T08:52:20.642Z,4.50
2024-05-09T08:54:50.545Z,0.00
2024-05-09T08:57:21.585Z,1.25
2024-05-09T08:59:55.267Z,2.25
2024-05-09T09:02:24.243Z,1.75
2024-05-09T09:05:02.362Z,7.00
2024-05-09T09:07:35.390Z,1.00
2024-05-09T09:10:12.929Z,2.00
2024-05-09T09:12:44.159Z,3.00
2024-05-09T09:15:15.517Z,1.00
2024-05-09T09:17:53.985Z,4.75
2024-05-09T09:20:29.522Z,1.00
2024-05-09T09:23:04.110Z,1.50
2024-05-09T09:25:34.907Z,2.00
2024-05-09T09:28:04.827Z,2.25
2024-05-09T09:30:36.974Z,6.00
2024-05-09T09:33:09.235Z,2.00
2024-05-09T09:35:37.221Z,4.00
2024-05-09T09:38:17.737Z,2.00
2024-05-09T09:40:49.765Z,2.50
2024-05-09T09:43:24.498Z,1.50
2024-05-09T09:45:53.454Z,1.25
2024-05-09T09:48:24.701Z,2.00
2024-05-09T09:50:52.767Z,0.00
2024-05-09T09:53:23.088Z,2.00
2024-05-09T09:55:52.883Z,3.00
2024-05-09T09:58:23.324Z,0.50
2024-05-09T10:00:52.008Z,4.50
2024-05-09T10:03:22.059Z,1.50
2024-05-09T10:05:50.121Z,1.00
2024-05-09T10:08:22.311Z,4.50
2024-05-09T10:10:50.129Z,4.75
2024-05-09T10:13:20.589Z,3.00
2024-05-09T10:15:53.864Z,2.00
2024-05-09T10:18:28.506Z,4.50
2024-05-09T10:20:58.162Z,1.00
2024-05-09T10:23:30.269Z,1.25
2024-05-09T10:25:59.130Z,4.50
2024-05-09T10:28:33.718Z,4.00
2024-05-09T10:31:02.859Z,2.00
2024-05-09T10:33:42.831Z,5.00
2024-05-09T10:36:13.498Z,1.00
2024-05-09T10:38:45.469Z,2.50
2024-05-09T10:41:12.781Z,2.00
2024-05-09T10:43:43.074Z,1.75
2024-05-09T10:46:13.786Z,1.75
2024-05-09T10:48:45.848Z,1.00
2024-05-09T10:51:14.584Z,4.00
2024-05-09T10:54:00.842Z,3.25
2024-05-09T10:56:28.482Z,3.00
2024-05-09T10:58:58.565Z,3.50
2024-05-09T11:01:26.000Z,4.00
2024-05-09T11:04:00.439Z,1.00
2024-05-09T11:06:28.174Z,3.00
2024-05-09T11:09:01.457Z,3.25
2024-05-09T11:11:30.419Z,1.00
2024-05-09T11:14:01.856Z,4.00
2024-05-09T11:16:31.075Z,5.00
2024-05-09T11:19:09.535Z,3.50
2024-05-09T11:21:37.627Z,4.25
2024-05-09T11:24:11.389Z,1.50
2024-05-09T11:26:43.619Z,1.00
2024-05-09T11:29:15.735Z,1.75
2024-05-09T11:31:47.378Z,2.00
2024-05-09T11:34:19.126Z,1.50
2024-05-09T11:36:46.892Z,6.00
2024-05-09T11:39:20.125Z,1.00
2024-05-09T11:41:48.452Z,2.50
2024-05-09T11:44:18.773Z,1.00
2024-05-09T11:46:46.628Z,1.50
2024-05-09T11:49:16.900Z,5.00
2024-05-09T11:51:44.752Z,5.50
2024-05-09T11:54:17.682Z,3.00
2024-05-09T11:56:45.958Z,1.75
2024-05-09T11:59:16.163Z,6.00
2024-05-09T12:01:45.094Z,4.00
2024-05-09T12:04:24.773Z,4.00
2024-05-09T12:06:52.349Z,4.50
2024-05-09T12:09:26.716Z,6.25
2024-05-09T12:11:54.191Z,5.00
2024-05-09T12:14:27.692Z,2.00
2024-05-09T12:16:59.393Z,1.25
2024-05-09T12:19:29.499Z,1.50
2024-05-09T12:21:57.194Z,7.25
2024-05-09T12:24:30.771Z,0.25
2024-05-09T12:26:58.055Z,0.00
2024-05-09T12:29:28.439Z,3.25
2024-05-09T12:31:58.170Z,1.00
2024-05-09T12:34:31.191Z,1.50
2024-05-09T12:36:58.531Z,5.50
2024-05-09T12:39:28.997Z,4.75
2024-05-09T12:41:56.250Z,7.00
2024-05-09T12:44:31.110Z,4.00
2024-05-09T12:46:58.374Z,1.75
2024-05-09T12:49:28.503Z,4.00
2024-05-09T12:51:55.946Z,6.50
2024-05-09T12:54:27.010Z,1.75
2024-05-09T12:56:55.325Z,4.00
2024-05-09T12:59:25.644Z,4.50
2024-05-09T13:01:53.864Z,2.00
2024-05-09T13:04:24.892Z,2.50
2024-05-09T13:06:52.978Z,4.00
2024-05-09T13:09:27.085Z,1.50
2024-05-09T13:12:09.087Z,2.00
2024-05-09T13:14:39.069Z,5.00
2024-05-09T13:17:08.408Z,3.25
2024-05-09T13:19:42.207Z,4.25
2024-05-09T13:22:10.003Z,7.00
2024-05-09T13:24:40.153Z,7.50
2024-05-09T13:27:07.590Z,5.50
2024-05-09T13:29:39.702Z,4.25
2024-05-09T13:32:08.453Z,7.50
2024-05-09T13:34:38.394Z,6.25
2024-05-09T13:37:05.727Z,4.50
2024-05-09T13:39:38.006Z,6.00
2024-05-09T13:42:05.866Z,3.75
2024-05-09T13:44:38.963Z,3.75
2024-05-09T13:47:06.288Z,4.00
2024-05-09T13:49:36.872Z,4.25
2024-05-09T13:52:08.593Z,7.25
2024-05-09T13:54:37.406Z,3.25
2024-05-09T13:57:32.873Z,4.25
2024-05-09T14:00:07.489Z,1.00
2024-05-09T14:02:43.443Z,5.50
2024-05-09T14:05:13.900Z,1.75
2024-05-09T14:07:43.967Z,3.00
2024-05-09T14:10:19.930Z,6.25
2024-05-09T14:12:56.482Z,5.00
2024-05-09T14:15:25.007Z,5.25
2024-05-09T14:17:54.996Z,3.50
2024-05-09T14:20:30.511Z,1.50
2024-05-09T14:23:03.254Z,4.50
2024-05-09T14:25:36.770Z,3.00
2024-05-09T14:28:28.148Z,5.25
2024-05-09T14:31:37.896Z,4.50
2024-05-09T14:34:34.851Z,2.00
2024-05-09T14:37:05.024Z,4.75
2024-05-09T14:39:38.373Z,3.00
2024-05-09T14:42:06.378Z,1.00
2024-05-09T14:44:36.470Z,2.00
2024-05-09T14:47:05.605Z,2.00
2024-05-09T14:49:35.885Z,2.00
2024-05-09T14:52:03.278Z,2.00
2024-05-09T14:54:33.423Z,3.00
2024-05-09T14:57:01.391Z,3.00
2024-05-09T14:59:33.815Z,1.25
2024-05-09T15:02:01.570Z,2.50
2024-05-09T15:12:06.040Z,4.75
2024-05-09T15:14:33.268Z,4.50
2024-05-09T15:17:05.713Z,0.50
2024-05-09T15:19:33.576Z,2.00
2024-05-09T15:22:04.035Z,4.00
2024-05-09T15:24:33.501Z,1.25
2024-05-09T15:27:03.356Z,5.00
2024-05-09T15:29:33.741Z,2.00
2024-05-09T15:32:09.659Z,4.75
2024-05-09T15:34:47.414Z,1.50
2024-05-09T15:38:51.483Z,5.25
2024-05-09T15:41:19.148Z,4.00
2024-05-09T15:44:01.133Z,0.75
2024-05-09T15:46:34.869Z,3.00
2024-05-09T15:49:02.578Z,4.00
2024-05-09T15:51:32.623Z,1.00
2024-05-09T15:53:59.905Z,4.75
2024-05-09T15:56:32.298Z,7.00
2024-05-09T15:58:59.836Z,3.00
2024-05-09T16:01:31.769Z,8.50
2024-05-09T16:03:59.908Z,4.00
2024-05-09T16:06:32.590Z,1.75
2024-05-09T16:09:04.735Z,4.25
2024-05-09T16:11:34.701Z,4.00
2024-05-09T16:14:02.013Z,5.00
2024-05-09T16:16:32.773Z,6.00
2024-05-09T16:19:01.894Z,5.00
2024-05-09T16:21:31.912Z,4.75
2024-05-09T16:24:00.942Z,4.00
2024-05-09T16:26:31.657Z,5.00
2024-05-09T16:28:58.958Z,5.00
2024-05-09T16:31:29.037Z,6.25
2024-05-09T16:33:56.499Z,4.50
2024-05-09T16:36:27.304Z,7.25
2024-05-09T16:38:55.059Z,4.50
2024-05-09T16:41:25.397Z,7.75
2024-05-09T16:43:53.743Z,5.75
2024-05-09T16:46:25.816Z,7.25
2024-05-09T16:48:56.557Z,5.00
2024-05-09T16:51:27.553Z,5.50
2024-05-09T16:53:56.267Z,8.25
2024-05-09T16:56:27.633Z,6.75
2024-05-09T16:58:54.934Z,9.50
2024-05-09T17:01:25.932Z,8.25
2024-05-09T17:04:04.965Z,6.50
2024-05-09T17:07:28.247Z,4.00
2024-05-09T17:09:55.527Z,8.00
2024-05-09T17:12:28.757Z,6.00
2024-05-09T17:14:58.847Z,5.50
2024-05-09T17:17:32.368Z,9.50
2024-05-09T17:20:00.144Z,8.00
2024-05-09T17:22:30.862Z,7.25
2024-05-09T17:24:58.646Z,6.50
2024-05-09T17:30:21.159Z,7.00
2024-05-09T17:32:55.029Z,8.50
2024-05-09T17:35:23.805Z,12.00
2024-05-09T17:37:54.258Z,9.75
2024-05-09T17:40:31.551Z,6.50
2024-05-09T17:43:06.460Z,7.00
2024-05-09T17:45:37.921Z,7.75
2024-05-09T17:48:10.121Z,11.50
2024-05-09T17:50:38.656Z,10.50
2024-05-09T17:53:09.635Z,10.50
2024-05-09T17:55:39.800Z,12.75
2024-05-09T17:58:10.483Z,8.50
2024-05-09T18:00:41.889Z,11.25
2024-05-09T18:03:14.827Z,14.25
2024-05-09T18:05:44.734Z,13.00
2024-05-09T18:08:16.049Z,13.50
2024-05-09T18:10:44.783Z,9.00
2024-05-09T18:13:14.966Z,12.00
2024-05-09T18:15:44.494Z,13.25
2024-05-09T18:18:22.419Z,15.00
2024-05-09T18:20:51.127Z,11.25
2024-05-09T18:23:22.594Z,9.00
2024-05-09T18:25:54.810Z,11.50
2024-05-09T18:28:28.749Z,13.00
2024-05-09T18:30:56.783Z,14.75
2024-05-09T18:33:27.308Z,14.50
2024-05-09T18:35:56.046Z,10.25
2024-05-09T18:38:27.229Z,13.25
2024-05-09T18:40:55.068Z,12.00
2024-05-09T18:43:31.077Z,13.75
2024-05-09T18:46:03.864Z,19.50
2024-05-09T18:48:37.536Z,15.75
2024-05-09T18:51:05.787Z,15.25
2024-05-09T18:53:40.814Z,12.75
2024-05-09T18:56:09.382Z,19.75
2024-05-09T18:58:40.557Z,16.25
2024-05-09T19:01:08.225Z,12.00
2024-05-09T19:03:40.626Z,20.50
2024-05-09T19:06:08.166Z,13.00
2024-05-09T19:08:38.125Z,16.75
2024-05-09T19:11:05.747Z,19.00
2024-05-09T19:13:38.101Z,14.50
2024-05-09T19:16:06.008Z,23.00
2024-05-09T19:18:39.437Z,16.25
2024-05-09T19:21:07.794Z,15.00
2024-05-09T19:23:47.085Z,19.00
2024-05-09T19:26:19.093Z,24.80
2024-05-09T19:28:48.970Z,20.75
2024-05-09T19:31:16.518Z,20.60
2024-05-09T19:33:48.887Z,21.60
2024-05-09T19:36:19.479Z,15.40
2024-05-09T19:38:51.631Z,24.20
2024-05-09T19:41:20.505Z,23.20
2024-05-09T19:43:50.337Z,24.40
2024-05-09T19:46:17.583Z,26.60
2024-05-09T19:48:49.137Z,23.00
2024-05-09T19:51:16.485Z,20.75
2024-05-09T19:53:50.747Z,25.20
2024-05-09T19:56:18.317Z,23.00
2024-05-09T19:58:48.581Z,32.20
2024-05-09T20:01:15.901Z,24.40
2024-05-09T20:03:45.973Z,19.80
2024-05-09T20:06:14.466Z,25.20
2024-05-09T20:08:44.514Z,19.00
2024-05-09T20:11:12.365Z,21.40
2024-05-09T20:13:42.371Z,33.40
2024-05-09T20:16:09.841Z,25.25
2024-05-09T20:18:42.077Z,27.40
2024-05-09T20:21:09.478Z,34.80
2024-05-09T20:23:40.223Z,35.00
2024-05-09T20:26:09.212Z,29.40
2024-05-09T20:28:39.117Z,31.20
2024-05-09T20:31:06.969Z,32.80
2024-05-09T20:33:38.125Z,30.60
2024-05-09T20:36:06.107Z,35.60
2024-05-09T20:38:38.162Z,35.20
2024-05-09T20:41:05.877Z,33.80
2024-05-09T20:43:37.963Z,33.20
2024-05-09T20:46:05.692Z,39.20
2024-05-09T20:48:38.564Z,27.00
2024-05-09T20:51:06.059Z,38.80
2024-05-09T20:53:37.634Z,41.00
2024-05-09T20:56:04.895Z,35.60
2024-05-09T20:58:34.769Z,34.20
2024-05-09T21:01:03.360Z,31.40
2024-05-09T21:03:38.269Z,29.80
2024-05-09T21:06:05.739Z,30.40
2024-05-09T21:08:35.606Z,23.80
2024-05-09T21:11:02.829Z,30.60
2024-05-09T21:13:32.807Z,25.80
2024-05-09T21:16:00.227Z,30.00
2024-05-09T21:18:31.416Z,27.00
2024-05-09T21:21:01.616Z,23.60
2024-05-09T21:23:28.780Z,29.20
2024-05-09T21:25:58.691Z,29.40
2024-05-09T21:28:26.239Z,17.20
2024-05-09T21:30:56.407Z,17.80
2024-05-09T21:33:25.422Z,22.60
2024-05-09T21:35:55.427Z,21.80
2024-05-09T21:38:22.584Z,27.60
2024-05-09T21:40:52.568Z,16.80
2024-05-09T21:43:20.003Z,27.00
2024-05-09T21:45:49.972Z,22.80
2024-05-09T21:48:17.209Z,21.40
2024-05-09T21:50:48.201Z,24.20
2024-05-09T21:53:15.580Z,18.80
2024-05-09T21:55:45.768Z,21.80
2024-05-09T21:58:16.089Z,25.60
2024-05-09T22:00:46.691Z,24.80
2024-05-09T22:03:14.398Z,21.20
2024-05-09T22:05:45.212Z,20.00
2024-05-09T22:08:12.967Z,17.40
2024-05-09T22:10:43.085Z,16.00
2024-05-09T22:13:10.347Z,23.80
2024-05-09T22:15:41.207Z,24.80
2024-05-09T22:18:10.071Z,21.40
2024-05-09T22:20:45.229Z,17.20
2024-05-09T22:23:13.626Z,14.00
2024-05-09T22:25:43.646Z,22.00
2024-05-09T22:28:13.009Z,15.00
2024-05-09T22:30:44.197Z,17.75
2024-05-09T22:33:12.545Z,17.50
2024-05-09T22:35:43.013Z,11.50
2024-05-09T22:38:10.278Z,12.25
2024-05-09T22:40:47.334Z,15.25
2024-05-09T22:43:17.875Z,11.75
2024-05-09T22:45:47.986Z,18.50
2024-05-09T22:48:15.578Z,17.00
2024-05-09T22:50:45.627Z,17.20
2024-05-09T22:53:12.835Z,15.40
2024-05-09T22:55:42.712Z,12.00
2024-05-09T22:58:10.050Z,20.20
2024-05-09T23:00:40.265Z,12.00
2024-05-09T23:03:07.654Z,17.20
2024-05-09T23:05:37.915Z,14.20
2024-05-09T23:08:05.254Z,10.00
2024-05-09T23:10:37.722Z,10.60
2024-05-09T23:13:06.581Z,14.00
2024-05-09T23:15:37.244Z,14.40
2024-05-09T23:18:05.196Z,17.25
2024-05-09T23:20:38.731Z,12.50
2024-05-09T23:23:08.331Z,12.25
2024-05-09T23:25:38.283Z,15.50
2024-05-09T23:28:05.996Z,13.50
2024-05-09T23:30:39.414Z,12.75
2024-05-09T23:33:09.887Z,6.00
2024-05-09T23:35:40.138Z,11.50
2024-05-09T23:38:07.351Z,13.00
2024-05-09T23:40:40.168Z,11.33
2024-05-09T23:43:10.359Z,5.50
2024-05-09T23:45:40.933Z,13.00
2024-05-09T23:48:08.753Z,12.50
2024-05-09T23:50:40.229Z,10.75
2024-05-09T23:53:11.327Z,14.00
2024-05-09T23:55:39.310Z,10.25
2024-05-09T23:58:09.841Z,12.25
